Time;durP1;ratioP1;P1;durP2;ratioP2;P2;SDS_P1;SDS_P2;PMS_P1;PMS_P2;Temp;Humidity;BMP_temperature;BMP_pressure;BME280_temperature;BME280_humidity;BME280_pressure;Samples;Min_cycle;Max_cycle;Signal;HPM_P1;HPM_P2
2023/02/01 00:01:10;;;;;;;0.00;0.00;;;;;;;6.11;47.06;95204.94;5049569;28;20290;-66
2023/02/01 00:03:37;;;;;;;0.13;0.13;;;;;;;6.33;46.68;95205.28;5049920;28;20558;-66
2023/02/01 00:06:04;;;;;;;0.00;0.00;;;;;;;6.18;46.51;95200.44;5049502;28;20629;-67
2023/02/01 00:08:31;;;;;;;0.10;0.10;;;;;;;5.89;46.99;95195.25;5049335;28;20205;-63
2023/02/01 00:11:03;;;;;;;8.07;1.85;;;;;;;5.89;47.21;95211.63;5049239;28;20270;-67
2023/02/01 00:13:32;;;;;;;0.00;0.00;;;;;;;5.76;47.79;95203.97;5049814;28;20222;-65
2023/02/01 00:16:18;;;;;;;0.03;0.03;;;;;;;5.60;47.72;95177.75;5049120;28;20626;-62
2023/02/01 00:18:46;;;;;;;0.73;0.52;;;;;;;5.99;47.24;95198.09;5049611;28;20291;-66
2023/02/01 00:21:18;;;;;;;0.00;0.00;;;;;;;6.27;47.07;95206.16;5048876;28;20251;-65
2023/02/01 00:23:45;;;;;;;0.00;0.00;;;;;;;6.23;46.90;95202.41;5036626;28;20224;-66
2023/02/01 00:26:22;;;;;;;0.00;0.00;;;;;;;6.15;46.62;95185.28;5048864;28;20291;-63
2023/02/01 00:28:49;;;;;;;0.00;0.00;;;;;;;6.05;46.75;95199.84;5048682;28;20674;-65
2023/02/01 00:31:15;;;;;;;0.00;0.00;;;;;;;5.39;47.74;95191.16;5049084;28;20283;-65
2023/02/01 00:33:42;;;;;;;1.17;0.45;;;;;;;5.80;47.16;95191.31;5047893;28;20305;-64
2023/02/01 00:36:09;;;;;;;1.13;1.05;;;;;;;5.92;47.06;95185.19;5048894;28;20707;-65
2023/02/01 00:38:38;;;;;;;0.65;0.65;;;;;;;5.40;47.30;95184.97;5034573;28;20196;-62
2023/02/01 00:41:16;;;;;;;0.52;0.38;;;;;;;6.20;46.29;95187.25;5048772;28;20223;-65
2023/02/01 00:43:44;;;;;;;0.10;0.10;;;;;;;5.89;46.26;95184.84;5037621;28;20638;-68
2023/02/01 00:46:13;;;;;;;0.00;0.00;;;;;;;6.08;46.13;95181.19;5046957;28;20294;-62
2023/02/01 00:48:40;;;;;;;0.00;0.00;;;;;;;5.45;46.43;95188.53;5049344;28;20303;-66
2023/02/01 00:51:11;;;;;;;2.15;0.93;;;;;;;5.54;46.28;95186.41;5048094;28;20219;-62
2023/02/01 00:53:39;;;;;;;0.00;0.00;;;;;;;5.84;45.18;95182.06;5049057;28;20210;-64
2023/02/01 00:56:06;;;;;;;0.32;0.32;;;;;;;5.20;46.47;95179.97;5048235;28;20635;-68
2023/02/01 00:58:33;;;;;;;0.00;0.00;;;;;;;5.55;45.71;95178.41;5049091;28;20200;-65
2023/02/01 01:01:11;;;;;;;0.00;0.00;;;;;;;5.68;44.97;95180.03;5047635;28;20261;-67
2023/02/01 01:03:41;;;;;;;0.00;0.00;;;;;;;6.18;44.62;95174.44;5031257;28;20200;-67
2023/02/01 01:06:12;;;;;;;0.75;0.75;;;;;;;6.40;43.70;95174.75;5048704;28;20220;-68
2023/02/01 01:08:40;;;;;;;0.20;0.20;;;;;;;5.98;44.10;95178.31;5047493;28;20208;-67
2023/02/01 01:11:11;;;;;;;0.00;0.00;;;;;;;5.10;45.39;95175.28;5048000;28;20607;-63
2023/02/01 01:13:38;;;;;;;0.08;0.08;;;;;;;5.62;44.91;95173.91;5047124;28;20262;-66
2023/02/01 01:16:08;;;;;;;1.75;0.95;;;;;;;5.97;43.91;95177.53;5048297;28;20254;-63
2023/02/01 01:18:36;;;;;;;0.00;0.00;;;;;;;5.88;44.16;95178.03;5047126;28;20323;-65
2023/02/01 01:21:08;;;;;;;0.00;0.00;;;;;;;6.53;42.59;95171.91;5048013;28;20302;-66
2023/02/01 01:23:36;;;;;;;0.00;0.00;;;;;;;5.82;43.75;95178.91;5048077;28;20192;-66
2023/02/01 01:26:08;;;;;;;0.00;0.00;;;;;;;5.45;44.24;95172.13;5046470;28;20251;-64
2023/02/01 01:28:35;;;;;;;0.00;0.00;;;;;;;5.95;42.95;95169.13;5047997;28;20188;-64
2023/02/01 01:31:02;;;;;;;0.00;0.00;;;;;;;5.73;43.55;95165.38;5046464;28;20204;-64
2023/02/01 01:33:30;;;;;;;0.98;0.93;;;;;;;6.01;43.27;95172.66;5046717;28;20236;-64
2023/02/01 01:35:56;;;;;;;0.00;0.00;;;;;;;6.16;42.63;95175.69;5046479;28;20215;-65
2023/02/01 01:38:23;;;;;;;0.75;0.75;;;;;;;6.44;42.22;95185.50;5046733;28;20657;-65
2023/02/01 01:40:50;;;;;;;0.00;0.00;;;;;;;6.21;42.04;95188.81;5046330;28;20296;-63
2023/02/01 01:43:22;;;;;;;0.00;0.00;;;;;;;6.03;42.46;95191.47;5047192;28;20208;-67
2023/02/01 01:45:51;;;;;;;0.30;0.30;;;;;;;6.27;42.11;95198.34;5046129;28;20663;-67
2023/02/01 01:48:29;;;;;;;0.10;0.10;;;;;;;6.17;41.83;95187.66;5046596;28;20205;-64
2023/02/01 01:51:02;;;;;;;0.00;0.00;;;;;;;6.09;42.03;95191.34;5046364;28;20192;-67
2023/02/01 01:53:38;;;;;;;0.20;0.20;;;;;;;5.82;42.23;95186.69;5048275;28;20197;-66
2023/02/01 01:56:05;;;;;;;0.00;0.00;;;;;;;5.70;41.62;95185.81;5046080;28;20596;-65
2023/02/01 01:58:33;;;;;;;4.78;1.95;;;;;;;6.04;41.49;95185.22;5046763;28;20212;-66
2023/02/01 02:01:00;;;;;;;0.00;0.00;;;;;;;6.39;41.13;95180.94;5046206;28;20223;-68
2023/02/01 02:03:33;;;;;;;0.00;0.00;;;;;;;5.74;42.04;95176.59;5048503;28;20691;-69
2023/02/01 02:06:03;;;;;;;0.00;0.00;;;;;;;6.09;41.53;95174.97;5047726;28;20227;-63
2023/02/01 02:08:30;;;;;;;0.00;0.00;;;;;;;5.68;41.76;95177.44;5047948;28;20746;-64
2023/02/01 02:11:00;;;;;;;0.10;0.10;;;;;;;5.85;41.66;95183.69;5046215;28;20551;-65
2023/02/01 02:13:51;;;;;;;0.00;0.00;;;;;;;5.75;42.02;95184.16;5047434;28;20208;-65
2023/02/01 02:16:25;;;;;;;0.45;0.45;;;;;;;5.92;41.25;95179.19;5048169;28;20205;-63
2023/02/01 02:19:34;;;;;;;0.15;0.15;;;;;;;5.50;42.13;95174.84;5048554;28;20651;-66
2023/02/01 02:22:10;;;;;;;0.00;0.00;;;;;;;5.69;42.01;95163.47;5047365;28;20228;-66
2023/02/01 02:25:01;;;;;;;0.00;0.00;;;;;;;5.41;42.41;95165.75;5047960;28;20575;-64
2023/02/01 02:27:40;;;;;;;2.28;0.45;;;;;;;4.90;43.59;95161.69;5035504;28;20274;-64
2023/02/01 02:30:30;;;;;;;0.00;0.00;;;;;;;5.70;42.52;95165.84;5045443;28;20570;-66
2023/02/01 02:33:18;;;;;;;0.00;0.00;;;;;;;5.91;41.74;95182.81;5055386;28;20286;-64
2023/02/01 02:36:03;;;;;;;0.00;0.00;;;;;;;5.49;42.59;95179.25;5052166;28;20237;-66
2023/02/01 02:38:46;;;;;;;0.00;0.00;;;;;;;5.54;42.00;95181.22;5045977;28;20372;-63
2023/02/01 02:47:33;;;;;;;0.00;0.00;;;;;;;5.12;42.74;95173.28;5047626;28;20207;-67
2023/02/01 03:04:17;;;;;;;0.00;0.00;;;;;;;4.93;44.14;95168.25;5049665;28;20203;-63
2023/02/01 03:06:46;;;;;;;0.00;0.00;;;;;;;5.18;43.75;95176.00;5049217;28;20208;-63
2023/02/01 03:09:31;;;;;;;0.10;0.10;;;;;;;5.36;43.13;95179.41;5049486;28;20701;-69
2023/02/01 03:14:55;;;;;;;0.10;0.10;;;;;;;4.90;43.70;95182.47;5049198;28;20196;-70
2023/02/01 03:17:30;;;;;;;0.00;0.00;;;;;;;5.26;42.81;95189.50;5053194;28;20324;-64
2023/02/01 03:20:01;;;;;;;0.47;0.47;;;;;;;4.55;43.58;95191.72;5048996;28;20273;-65
2023/02/01 03:22:31;;;;;;;0.00;0.00;;;;;;;5.00;42.88;95190.53;5051763;28;20220;-67
2023/02/01 03:25:12;;;;;;;0.00;0.00;;;;;;;4.53;43.67;95204.09;5049233;28;20196;-65
2023/02/01 03:27:54;;;;;;;0.20;0.20;;;;;;;4.88;43.42;95197.44;5049071;28;20299;-62
2023/02/01 03:30:21;;;;;;;0.00;0.00;;;;;;;4.90;42.87;95211.03;5048555;28;20660;-61
2023/02/01 03:32:59;;;;;;;0.00;0.00;;;;;;;5.47;42.04;95199.50;5048955;28;20236;-64
2023/02/01 03:35:50;;;;;;;0.10;0.10;;;;;;;5.09;42.19;95204.84;5038270;28;20280;-63
2023/02/01 03:38:30;;;;;;;0.00;0.00;;;;;;;5.06;42.35;95215.66;5048641;28;20231;-66
2023/02/01 03:41:00;;;;;;;0.10;0.10;;;;;;;4.81;43.06;95212.28;5048188;28;20223;-66
2023/02/01 03:43:33;;;;;;;0.00;0.00;;;;;;;4.62;42.88;95215.81;5048535;28;20201;-66
2023/02/01 03:46:04;;;;;;;0.00;0.00;;;;;;;5.52;41.65;95204.84;5049407;28;21025;-65
2023/02/01 03:48:32;;;;;;;0.08;0.08;;;;;;;5.75;41.10;95196.34;5048667;28;20192;-65
2023/02/01 03:51:03;;;;;;;0.20;0.20;;;;;;;5.82;41.11;95210.09;5048201;28;20232;-64
2023/02/01 03:53:36;;;;;;;0.00;0.00;;;;;;;5.38;41.50;95203.38;5048845;28;20200;-65
2023/02/01 03:56:06;;;;;;;0.00;0.00;;;;;;;5.40;41.70;95205.78;5049436;28;20192;-67
2023/02/01 03:58:33;;;;;;;0.00;0.00;;;;;;;6.05;40.39;95205.03;5037462;28;20249;-66
2023/02/01 04:01:00;;;;;;;0.10;0.10;;;;;;;5.85;40.78;95205.28;5046245;28;20325;-68
2023/02/01 04:03:30;;;;;;;1.08;1.05;;;;;;;5.96;40.88;95195.94;5048840;28;20212;-64
2023/02/01 04:05:58;;;;;;;0.00;0.00;;;;;;;5.76;40.57;95208.38;5047901;28;20660;-66
2023/02/01 04:08:27;;;;;;;0.00;0.00;;;;;;;5.78;40.80;95204.53;5048580;28;20196;-64
2023/02/01 04:10:54;;;;;;;0.00;0.00;;;;;;;5.15;42.20;95203.19;5035728;28;20291;-68
2023/02/01 04:13:20;;;;;;;0.20;0.20;;;;;;;5.54;41.29;95202.00;5049740;28;20235;-63
2023/02/01 04:15:49;;;;;;;0.00;0.00;;;;;;;5.33;41.52;95200.63;5049660;28;20197;-63
2023/02/01 04:18:16;;;;;;;0.00;0.00;;;;;;;5.74;41.46;95192.19;5049610;28;20188;-67
2023/02/01 04:20:44;;;;;;;0.00;0.00;;;;;;;5.73;41.07;95201.00;5048951;28;20595;-66
2023/02/01 04:23:10;;;;;;;0.00;0.00;;;;;;;5.86;40.74;95191.25;5049335;28;20217;-65
2023/02/01 04:25:37;;;;;;;0.00;0.00;;;;;;;5.60;41.56;95201.16;5049213;28;20219;-65
2023/02/01 04:28:04;;;;;;;0.30;0.30;;;;;;;5.10;42.84;95205.66;5049267;28;20200;-63
2023/02/01 04:30:31;;;;;;;0.20;0.20;;;;;;;5.77;41.65;95196.94;5048872;28;20210;-66
2023/02/01 04:32:58;;;;;;;0.00;0.00;;;;;;;4.79;43.35;95172.75;5048812;28;20263;-65
2023/02/01 04:35:25;;;;;;;0.00;0.00;;;;;;;5.38;42.96;95208.59;5049241;28;20283;-63
2023/02/01 04:37:52;;;;;;;0.00;0.00;;;;;;;6.07;41.57;95203.81;5049404;28;20210;-65
2023/02/01 04:40:19;;;;;;;0.00;0.00;;;;;;;6.04;41.25;95206.03;5035680;28;20663;-65
2023/02/01 04:42:46;;;;;;;0.20;0.20;;;;;;;5.58;42.79;95192.78;5047466;28;20657;-63
2023/02/01 04:45:13;;;;;;;0.00;0.00;;;;;;;5.40;42.55;95195.38;5048978;28;20311;-65
2023/02/01 04:47:39;;;;;;;0.08;0.08;;;;;;;5.51;42.85;95199.84;5048806;28;20203;-67
2023/02/01 04:50:10;;;;;;;0.00;0.00;;;;;;;5.60;42.73;95196.72;5048110;28;20193;-66
2023/02/01 04:52:37;;;;;;;0.20;0.20;;;;;;;5.53;42.84;95196.00;5047221;28;20197;-63
2023/02/01 04:55:04;;;;;;;0.40;0.15;;;;;;;5.46;43.50;95205.69;5048804;28;20246;-66
2023/02/01 04:57:31;;;;;;;0.00;0.00;;;;;;;5.57;43.27;95206.75;5049085;28;20228;-65
2023/02/01 04:59:58;;;;;;;0.00;0.00;;;;;;;5.35;43.80;95213.38;5048939;28;20249;-65
2023/02/01 05:02:25;;;;;;;0.00;0.00;;;;;;;5.07;44.30;95214.66;5049081;28;20227;-65
2023/02/01 05:04:51;;;;;;;0.10;0.10;;;;;;;5.47;43.79;95222.09;5048891;28;20204;-66
2023/02/01 05:07:18;;;;;;;0.00;0.00;;;;;;;5.48;43.77;95223.66;5048281;28;20884;-66
2023/02/01 05:09:45;;;;;;;0.20;0.20;;;;;;;5.14;44.57;95232.78;5048570;28;20209;-62
2023/02/01 05:14:57;;;;;;;0.05;0.05;;;;;;;6.03;43.22;95248.69;5048294;28;20192;-61
2023/02/01 05:17:24;;;;;;;0.00;0.00;;;;;;;6.03;43.48;95243.47;5048594;28;20262;-66
2023/02/01 05:19:51;;;;;;;0.00;0.00;;;;;;;5.34;44.05;95238.59;5046174;28;20678;-60
2023/02/01 05:22:17;;;;;;;0.00;0.00;;;;;;;5.25;44.99;95239.09;5049132;28;20228;-68
2023/02/01 05:24:44;;;;;;;0.00;0.00;;;;;;;5.57;44.31;95243.97;5048645;28;20230;-65
2023/02/01 05:27:11;;;;;;;0.00;0.00;;;;;;;6.05;44.01;95236.25;5048329;28;20201;-66
2023/02/01 05:29:38;;;;;;;0.00;0.00;;;;;;;5.63;45.17;95231.91;5048482;28;20192;-64
2023/02/01 05:32:05;;;;;;;0.17;0.15;;;;;;;5.98;45.63;95230.34;5047346;28;20612;-61
2023/02/01 05:34:49;;;;;;;0.00;0.00;;;;;;;5.96;43.67;95242.75;5047792;28;20196;-63
2023/02/01 05:37:16;;;;;;;0.00;0.00;;;;;;;6.03;43.48;95239.06;5035330;28;20197;-63
2023/02/01 05:39:43;;;;;;;0.45;0.40;;;;;;;5.88;43.92;95235.25;5047785;28;20204;-64
2023/02/01 05:42:09;;;;;;;0.00;0.00;;;;;;;5.75;43.70;95237.97;5047993;28;20224;-66
2023/02/01 05:44:36;;;;;;;0.10;0.10;;;;;;;6.02;43.53;95237.47;5048376;28;20200;-64
2023/02/01 05:47:03;;;;;;;0.00;0.00;;;;;;;6.37;43.03;95235.03;5047710;28;20549;-62
2023/02/01 05:49:30;;;;;;;0.00;0.00;;;;;;;6.21;42.07;95208.81;5047944;28;20302;-65
2023/02/01 05:51:57;;;;;;;0.00;0.00;;;;;;;5.86;44.52;95237.28;5047813;28;20339;-63
2023/02/01 05:54:26;;;;;;;1.08;0.65;;;;;;;6.34;44.30;95235.47;5048224;28;20208;-69
2023/02/01 05:56:53;;;;;;;0.30;0.30;;;;;;;6.43;43.17;95233.34;5047209;28;20203;-66
2023/02/01 05:59:20;;;;;;;0.70;0.70;;;;;;;6.64;42.72;95218.03;5047106;28;20741;-66
2023/02/01 06:01:47;;;;;;;0.00;0.00;;;;;;;6.49;42.41;95233.28;5047517;28;20319;-62
2023/02/01 06:04:14;;;;;;;0.00;0.00;;;;;;;6.97;41.67;95236.56;5047295;28;20298;-65
2023/02/01 06:06:41;;;;;;;0.00;0.00;;;;;;;6.73;41.54;95229.69;5046919;28;20251;-62
2023/02/01 06:09:07;;;;;;;0.00;0.00;;;;;;;5.60;43.84;95232.34;5047755;28;20246;-65
2023/02/01 06:11:34;;;;;;;0.90;0.57;;;;;;;6.20;42.57;95221.06;5047942;28;20196;-64
2023/02/01 06:14:01;;;;;;;0.10;0.10;;;;;;;6.11;42.84;95236.16;5047398;28;20375;-67
2023/02/01 06:16:28;;;;;;;0.00;0.00;;;;;;;5.90;43.07;95241.84;5047850;28;20713;-67
2023/02/01 06:18:55;;;;;;;0.00;0.00;;;;;;;5.90;43.29;95235.81;5035146;28;20196;-64
2023/02/01 06:21:24;;;;;;;0.20;0.20;;;;;;;6.78;42.69;95237.66;5047331;28;20220;-70
2023/02/01 06:23:53;;;;;;;2.13;1.90;;;;;;;7.06;42.50;95230.00;5048423;28;20335;-60
2023/02/01 06:26:20;;;;;;;1.65;1.17;;;;;;;7.01;41.29;95242.09;5047171;28;20205;-63
2023/02/01 06:28:47;;;;;;;0.00;0.00;;;;;;;6.70;41.53;95240.56;5046576;28;20196;-64
2023/02/01 06:31:14;;;;;;;0.00;0.00;;;;;;;6.68;41.62;95240.00;5045294;28;20292;-64
2023/02/01 06:33:42;;;;;;;0.00;0.00;;;;;;;6.35;42.04;95244.09;5034766;28;20224;-64
2023/02/01 06:36:12;;;;;;;0.15;0.15;;;;;;;6.50;42.11;95242.66;5049541;28;20675;-62
2023/02/01 06:38:39;;;;;;;0.03;0.03;;;;;;;5.85;43.00;95230.50;5037738;28;20207;-63
2023/02/01 06:41:06;;;;;;;0.73;0.30;;;;;;;6.64;41.63;95254.47;5049724;28;20314;-64
2023/02/01 06:43:33;;;;;;;0.20;0.20;;;;;;;7.32;39.97;95254.06;5037884;28;20184;-63
2023/02/01 06:46:06;;;;;;;0.00;0.00;;;;;;;7.37;39.92;95251.56;5050341;28;20283;-65
2023/02/01 06:48:34;;;;;;;0.00;0.00;;;;;;;6.63;41.43;95255.50;5051653;28;20196;-60
2023/02/01 06:51:01;;;;;;;0.13;0.13;;;;;;;6.14;42.53;95271.38;5050539;28;20361;-65
2023/02/01 06:53:29;;;;;;;0.10;0.10;;;;;;;6.53;41.49;95260.44;5051588;28;20200;-65
2023/02/01 06:55:59;;;;;;;0.35;0.35;;;;;;;6.53;41.69;95263.03;5050528;28;20232;-62
2023/02/01 06:58:33;;;;;;;0.00;0.00;;;;;;;6.53;41.23;95273.44;5051579;28;20197;-63
2023/02/01 07:01:08;;;;;;;0.10;0.10;;;;;;;6.40;41.52;95276.25;5050164;28;20207;-63
2023/02/01 07:03:36;;;;;;;0.00;0.00;;;;;;;6.88;40.99;95266.53;5051083;28;20200;-63
2023/02/01 07:06:04;;;;;;;0.00;0.00;;;;;;;6.99;41.13;95271.00;5050221;28;20227;-61
2023/02/01 07:08:32;;;;;;;0.00;0.00;;;;;;;6.47;41.07;95271.75;5050806;28;20227;-64
2023/02/01 07:11:08;;;;;;;0.25;0.15;;;;;;;6.89;40.85;95275.97;5051006;28;20196;-61
2023/02/01 07:13:35;;;;;;;0.00;0.00;;;;;;;7.07;40.59;95278.50;5050935;28;20275;-61
2023/02/01 07:16:04;;;;;;;0.00;0.00;;;;;;;6.07;42.51;95287.06;5050264;28;20227;-63
2023/02/01 07:18:32;;;;;;;0.00;0.00;;;;;;;6.07;42.08;95297.47;5050742;28;20188;-64
2023/02/01 07:21:00;;;;;;;0.00;0.00;;;;;;;6.85;40.75;95290.44;5050395;28;20208;-63
2023/02/01 07:23:27;;;;;;;0.00;0.00;;;;;;;7.07;40.59;95288.91;5050695;28;20262;-64
2023/02/01 07:25:56;;;;;;;0.00;0.00;;;;;;;6.38;41.02;95299.09;5050346;28;20562;-64
2023/02/01 07:28:23;;;;;;;0.10;0.10;;;;;;;6.45;41.18;95302.41;5051004;28;20223;-65
2023/02/01 07:30:51;;;;;;;0.52;0.52;;;;;;;6.57;41.18;95303.25;5050836;28;20207;-62
2023/02/01 07:33:20;;;;;;;0.00;0.00;;;;;;;7.34;40.50;95304.91;5050655;28;20235;-63
2023/02/01 07:35:48;;;;;;;0.00;0.00;;;;;;;6.85;40.62;95306.06;5050327;28;20204;-64
2023/02/01 07:38:15;;;;;;;0.00;0.00;;;;;;;6.46;41.13;95305.81;5050559;28;20660;-65
2023/02/01 07:40:42;;;;;;;0.20;0.20;;;;;;;6.76;40.52;95307.41;5050647;28;20238;-67
2023/02/01 07:43:09;;;;;;;0.00;0.00;;;;;;;6.60;40.87;95310.63;5050278;28;20311;-61
2023/02/01 07:45:36;;;;;;;0.00;0.00;;;;;;;6.65;41.13;95315.97;5050153;28;20220;-63
2023/02/01 07:48:04;;;;;;;0.10;0.10;;;;;;;7.02;40.56;95317.47;5049929;28;20212;-64
2023/02/01 07:50:32;;;;;;;0.15;0.15;;;;;;;6.94;39.87;95309.94;5049879;28;20315;-63
2023/02/01 07:53:00;;;;;;;0.00;0.00;;;;;;;7.59;39.48;95313.31;5050898;28;20192;-61
2023/02/01 07:55:28;;;;;;;0.00;0.00;;;;;;;7.25;39.28;95316.69;5050010;28;20632;-63
2023/02/01 07:57:57;;;;;;;0.00;0.00;;;;;;;7.40;39.27;95324.09;5049847;28;20609;-65
2023/02/01 08:03:11;;;;;;;0.00;0.00;;;;;;;7.44;39.50;95335.66;5039677;28;20285;-66
2023/02/01 08:05:37;;;;;;;0.30;0.30;;;;;;;7.66;39.61;95340.13;5049106;28;20192;-63
2023/02/01 08:08:05;;;;;;;0.20;0.20;;;;;;;7.43;39.45;95334.84;5049801;28;20201;-64
2023/02/01 08:10:32;;;;;;;0.35;0.35;;;;;;;7.51;39.70;95336.34;5049486;28;20287;-67
2023/02/01 08:12:59;;;;;;;0.05;0.05;;;;;;;7.54;39.21;95341.09;5050182;28;20192;-62
2023/02/01 08:15:27;;;;;;;0.00;0.00;;;;;;;7.35;39.31;95326.59;5049409;28;20200;-64
2023/02/01 08:17:55;;;;;;;0.05;0.05;;;;;;;6.97;39.66;95329.56;5049860;28;20722;-63
2023/02/01 08:20:23;;;;;;;0.00;0.00;;;;;;;7.39;39.32;95323.28;5049626;28;20208;-64
2023/02/01 08:22:50;;;;;;;0.13;0.13;;;;;;;7.07;38.89;95324.59;5050422;28;20309;-67
2023/02/01 08:25:20;;;;;;;0.00;0.00;;;;;;;7.15;39.69;95335.47;5046070;28;20265;-63
2023/02/01 08:27:48;;;;;;;2.72;1.30;;;;;;;7.92;38.55;95323.19;5049711;28;20200;-65
2023/02/01 08:30:15;;;;;;;0.00;0.00;;;;;;;7.91;38.94;95327.63;5049094;28;20199;-66
2023/02/01 08:32:42;;;;;;;0.05;0.05;;;;;;;7.61;38.62;95337.38;5049421;28;20248;-65
2023/02/01 08:35:09;;;;;;;0.00;0.00;;;;;;;7.88;38.57;95332.50;5049365;28;20579;-62
2023/02/01 08:37:37;;;;;;;0.00;0.00;;;;;;;7.39;38.87;95332.94;5049037;28;20231;-59
2023/02/01 08:40:05;;;;;;;0.00;0.00;;;;;;;8.11;38.12;95328.06;5048820;28;20250;-64
2023/02/01 08:45:26;;;;;;;0.77;0.70;;;;;;;7.44;38.37;95335.66;5037014;28;20204;-65
2023/02/01 08:47:53;;;;;;;0.22;0.22;;;;;;;7.97;37.88;95331.91;5049199;28;20200;-64
2023/02/01 08:50:21;;;;;;;0.10;0.10;;;;;;;7.54;39.08;95322.84;5048828;28;20203;-66
2023/02/01 08:52:50;;;;;;;0.00;0.00;;;;;;;7.74;37.98;95320.69;5049087;28;20239;-62
2023/02/01 08:55:17;;;;;;;0.00;0.00;;;;;;;7.92;37.38;95323.19;5048068;28;21257;-64
2023/02/01 08:57:44;;;;;;;0.65;0.45;;;;;;;7.79;37.99;95326.81;5048662;28;20204;-64
2023/02/01 09:00:15;;;;;;;0.00;0.00;;;;;;;7.43;37.77;95323.63;5048566;28;20208;-62
2023/02/01 09:02:43;;;;;;;0.00;0.00;;;;;;;8.17;36.78;95315.91;5048645;28;20269;-62
2023/02/01 09:05:10;;;;;;;0.00;0.00;;;;;;;8.02;36.88;95323.41;5048584;28;20199;-64
2023/02/01 09:07:38;;;;;;;2.42;2.22;;;;;;;8.39;36.16;95332.59;5048996;28;20736;-67
2023/02/01 09:10:05;;;;;;;0.00;0.00;;;;;;;8.24;36.48;95337.50;5048154;28;20634;-65
2023/02/01 09:12:33;;;;;;;0.00;0.00;;;;;;;8.74;36.28;95335.09;5036248;28;20751;-61
2023/02/01 09:15:01;;;;;;;0.00;0.00;;;;;;;8.63;36.41;95347.16;5048110;28;20231;-64
2023/02/01 09:17:29;;;;;;;0.20;0.20;;;;;;;8.59;36.25;95340.81;5049046;28;20201;-64
2023/02/01 09:19:56;;;;;;;0.00;0.00;;;;;;;8.37;36.76;95332.03;5048401;28;20857;-65
2023/02/01 09:22:23;;;;;;;0.57;0.30;;;;;;;8.14;36.59;95337.25;5048617;28;20303;-62
2023/02/01 09:24:52;;;;;;;0.00;0.00;;;;;;;8.03;37.19;95345.88;5048247;28;20189;-65
2023/02/01 09:27:21;;;;;;;0.00;0.00;;;;;;;8.54;36.59;95345.94;5048597;28;20196;-62
2023/02/01 09:29:52;;;;;;;0.00;0.00;;;;;;;8.76;36.13;95338.25;5048146;28;20306;-62
2023/02/01 09:32:21;;;;;;;0.47;0.47;;;;;;;9.48;35.29;95323.56;5047959;28;20282;-64
2023/02/01 09:34:49;;;;;;;0.00;0.00;;;;;;;8.98;35.38;95331.34;5048126;28;20258;-65
2023/02/01 09:37:16;;;;;;;7.53;0.60;;;;;;;9.46;34.98;95320.38;5049115;28;20635;-67
2023/02/01 09:39:43;;;;;;;0.00;0.00;;;;;;;8.52;35.88;95329.69;5048676;28;20732;-64
2023/02/01 09:42:19;;;;;;;0.00;0.00;;;;;;;8.85;36.60;95319.34;5048438;28;20204;-65
2023/02/01 09:45:06;;;;;;;0.00;0.00;;;;;;;9.38;35.71;95326.03;5048459;28;20611;-66
2023/02/01 09:47:36;;;;;;;0.13;0.13;;;;;;;9.60;35.03;95321.69;5047967;28;20197;-64
2023/02/01 09:50:16;;;;;;;0.00;0.00;;;;;;;9.61;34.98;95312.78;5047816;28;20582;-61
2023/02/01 09:52:51;;;;;;;0.52;0.52;;;;;;;10.27;35.28;95302.25;5048172;28;20264;-66
2023/02/01 09:55:27;;;;;;;0.00;0.00;;;;;;;9.92;34.51;95294.69;5048143;28;20200;-63
2023/02/01 09:58:05;;;;;;;0.00;0.00;;;;;;;9.91;34.52;95287.84;5048017;28;20303;-61
2023/02/01 10:00:38;;;;;;;0.00;0.00;;;;;;;10.15;34.21;95289.25;5047339;28;20214;-61
2023/02/01 10:03:11;;;;;;;3.10;1.38;;;;;;;10.15;33.66;95283.22;5048320;28;20228;-68
2023/02/01 10:05:41;;;;;;;0.00;0.00;;;;;;;10.06;34.12;95282.03;5048106;28;20681;-64
2023/02/01 10:08:31;;;;;;;0.00;0.00;;;;;;;9.38;34.59;95294.66;5052218;28;20227;-62
2023/02/01 10:11:13;;;;;;;0.00;0.00;;;;;;;9.43;34.74;95284.25;5043397;28;20632;-63
2023/02/01 10:14:13;;;;;;;0.00;0.00;;;;;;;9.92;34.33;95280.78;5051821;28;20205;-62
2023/02/01 10:16:54;;;;;;;0.00;0.00;;;;;;;9.98;33.35;95271.97;5050011;28;20630;-64
2023/02/01 10:19:33;;;;;;;0.20;0.20;;;;;;;10.93;32.87;95278.31;5052435;28;20204;-64
2023/02/01 10:22:05;;;;;;;0.00;0.00;;;;;;;11.22;32.52;95263.91;5051492;28;20656;-64
2023/02/01 10:24:32;;;;;;;0.10;0.10;;;;;;;11.92;31.95;95247.88;5052114;28;20667;-61
2023/02/01 10:27:21;;;;;;;0.10;0.10;;;;;;;11.97;31.07;95239.25;5050796;28;20201;-61
2023/02/01 10:29:58;;;;;;;0.10;0.10;;;;;;;11.91;30.99;95235.03;5051486;28;20216;-62
2023/02/01 10:32:31;;;;;;;0.00;0.00;;;;;;;11.80;31.20;95239.44;5051732;28;20470;-62
2023/02/01 10:35:01;;;;;;;0.00;0.00;;;;;;;12.01;30.91;95232.44;5051091;28;20816;-63
2023/02/01 10:37:31;;;;;;;0.00;0.00;;;;;;;11.85;30.80;95226.31;5052216;28;21168;-61
2023/02/01 10:40:11;;;;;;;0.00;0.00;;;;;;;12.15;30.78;95223.06;5051389;28;20435;-63
2023/02/01 10:42:39;;;;;;;0.00;0.00;;;;;;;12.63;30.37;95214.78;5051673;28;20474;-61
2023/02/01 10:45:07;;;;;;;0.00;0.00;;;;;;;12.11;30.48;95232.50;5045390;28;20952;-63
2023/02/01 10:47:34;;;;;;;0.00;0.00;;;;;;;11.38;31.12;95224.69;5045093;28;20443;-64
2023/02/01 10:50:18;;;;;;;0.10;0.10;;;;;;;11.60;30.99;95220.09;5038065;28;20244;-65
2023/02/01 10:52:54;;;;;;;0.10;0.10;;;;;;;11.60;30.63;95222.72;5051377;28;20192;-65
2023/02/01 10:55:49;;;;;;;0.30;0.17;;;;;;;11.93;30.27;95211.91;5051458;28;20435;-65
2023/02/01 10:58:25;;;;;;;0.30;0.30;;;;;;;12.40;31.03;95207.38;5040104;28;20454;-64
2023/02/01 11:00:54;;;;;;;0.00;0.00;;;;;;;11.56;30.98;95216.41;5050875;28;20507;-61
2023/02/01 11:03:33;;;;;;;0.08;0.08;;;;;;;12.02;30.65;95220.88;5051660;28;20544;-63
2023/02/01 11:06:02;;;;;;;0.00;0.00;;;;;;;10.87;31.13;95216.41;5050861;28;20192;-64
2023/02/01 11:08:29;;;;;;;0.40;0.40;;;;;;;11.57;31.31;95212.75;5051072;28;20820;-65
2023/02/01 11:11:00;;;;;;;0.00;0.00;;;;;;;11.16;30.80;95212.47;5050797;28;20962;-63
2023/02/01 11:13:37;;;;;;;0.10;0.10;;;;;;;11.13;31.45;95233.94;5051279;28;20439;-63
2023/02/01 11:16:05;;;;;;;0.00;0.00;;;;;;;11.21;32.09;95220.38;5050856;28;20459;-64
2023/02/01 11:18:36;;;;;;;0.00;0.00;;;;;;;10.86;31.61;95222.69;5049682;28;20224;-62
2023/02/01 11:21:09;;;;;;;0.00;0.00;;;;;;;10.38;32.22;95220.13;5050453;28;20657;-65
2023/02/01 11:23:43;;;;;;;0.00;0.00;;;;;;;9.96;32.39;95216.47;5050558;28;20216;-65
2023/02/01 11:26:25;;;;;;;0.00;0.00;;;;;;;10.25;32.06;95202.16;5050392;28;20667;-62
2023/02/01 11:29:13;;;;;;;0.00;0.00;;;;;;;10.69;32.03;95203.66;5050506;28;20219;-65
2023/02/01 11:31:42;;;;;;;0.00;0.00;;;;;;;10.45;31.80;95204.19;5049974;28;20685;-66
2023/02/01 11:34:20;;;;;;;0.63;0.63;;;;;;;11.26;31.80;95200.47;5051375;28;20197;-61
2023/02/01 11:36:49;;;;;;;0.00;0.00;;;;;;;11.67;31.78;95187.38;5050864;28;20211;-62
2023/02/01 11:39:34;;;;;;;0.00;0.00;;;;;;;10.96;31.03;95193.16;5051208;28;20443;-65
2023/02/01 11:42:24;;;;;;;0.00;0.00;;;;;;;10.52;31.61;95216.06;5038056;28;20204;-65
2023/02/01 11:45:07;;;;;;;0.00;0.00;;;;;;;10.43;31.93;95198.41;5050753;28;20472;-63
2023/02/01 11:47:40;;;;;;;0.00;0.00;;;;;;;10.44;31.65;95182.44;5051232;28;20211;-67
2023/02/01 11:50:18;;;;;;;0.50;0.50;;;;;;;11.61;31.58;95177.06;5051074;28;20477;-66
2023/02/01 11:53:07;;;;;;;0.23;0.23;;;;;;;11.67;30.34;95191.81;5051252;28;20447;-64
2023/02/01 11:55:36;;;;;;;0.00;0.00;;;;;;;11.20;31.13;95186.53;5057723;28;20474;-64
2023/02/01 11:58:15;;;;;;;0.00;0.00;;;;;;;11.15;30.66;95168.91;5050227;28;20466;-63
2023/02/01 12:00:42;;;;;;;0.47;0.47;;;;;;;11.63;30.74;95169.72;5060704;28;20266;-62
2023/02/01 12:03:41;;;;;;;0.00;0.00;;;;;;;10.66;31.70;95162.22;5056172;28;20532;-65
2023/02/01 12:06:19;;;;;;;0.00;0.00;;;;;;;11.03;31.17;95165.69;5037829;28;20496;-63
2023/02/01 12:09:11;;;;;;;0.00;0.00;;;;;;;11.75;30.67;95158.00;5049909;28;20225;-65
2023/02/01 12:11:50;;;;;;;0.00;0.00;;;;;;;12.29;29.66;95158.47;5049347;28;20207;-64
2023/02/01 12:14:44;;;;;;;0.53;0.53;;;;;;;13.12;28.59;95152.78;5038528;28;20204;-65
2023/02/01 12:17:39;;;;;;;0.00;0.00;;;;;;;14.24;27.54;95154.03;5049521;28;20439;-61
2023/02/01 12:20:35;;;;;;;0.00;0.00;;;;;;;11.68;29.96;95141.69;5049361;28;20463;-64
2023/02/01 12:23:05;;;;;;;0.77;0.73;;;;;;;13.12;28.83;95150.16;5049179;28;20864;-62
2023/02/01 12:25:40;;;;;;;0.00;0.00;;;;;;;14.69;27.13;95145.13;5048707;28;20497;-63
2023/02/01 12:28:25;;;;;;;0.00;0.00;;;;;;;14.16;27.16;95141.41;5049647;28;20961;-66
2023/02/01 12:31:12;;;;;;;0.10;0.07;;;;;;;14.68;26.86;95127.69;5048173;28;20554;-63